sensor_id;sensor_type;location;lat;lon;timestamp;temperature;humidity
11188;DHT22;5650;52.700;7.306;2022-10-16T00:00:10;12.20;99.90
11188;DHT22;5650;52.700;7.306;2022-10-16T00:02:37;12.10;99.90
11188;DHT22;5650;52.700;7.306;2022-10-16T00:05:05;12.10;99.90
11188;DHT22;5650;52.700;7.306;2022-10-16T00:07:35;12.10;99.90
11188;DHT22;5650;52.700;7.306;2022-10-16T00:10:04;12.10;99.90
11188;DHT22;5650;52.700;7.306;2022-10-16T00:12:36;12.10;99.90
11188;DHT22;5650;52.700;7.306;2022-10-16T00:15:07;12.10;99.90
11188;DHT22;5650;52.700;7.306;2022-10-16T00:17:37;12.10;99.90
11188;DHT22;5650;52.700;7.306;2022-10-16T00:20:05;12.10;99.90
11188;DHT22;5650;52.700;7.306;2022-10-16T00:22:41;12.10;99.90
11188;DHT22;5650;52.700;7.306;2022-10-16T00:25:12;12.10;99.90
11188;DHT22;5650;52.700;7.306;2022-10-16T00:27:45;12.10;99.90
11188;DHT22;5650;52.700;7.306;2022-10-16T00:30:15;12.20;99.90
11188;DHT22;5650;52.700;7.306;2022-10-16T00:32:42;12.20;99.90
11188;DHT22;5650;52.700;7.306;2022-10-16T00:35:09;12.20;99.90
11188;DHT22;5650;52.700;7.306;2022-10-16T00:37:36;12.20;99.90
11188;DHT22;5650;52.700;7.306;2022-10-16T00:40:04;12.20;99.90
11188;DHT22;5650;52.700;7.306;2022-10-16T00:42:32;12.30;99.90
11188;DHT22;5650;52.700;7.306;2022-10-16T00:45:00;12.30;99.90
11188;DHT22;5650;52.700;7.306;2022-10-16T00:47:35;12.30;99.90
11188;DHT22;5650;52.700;7.306;2022-10-16T00:50:18;12.20;99.90
11188;DHT22;5650;52.700;7.306;2022-10-16T00:52:52;12.20;99.90
11188;DHT22;5650;52.700;7.306;2022-10-16T00:55:20;12.20;99.90
11188;DHT22;5650;52.700;7.306;2022-10-16T00:57:54;12.20;99.90
11188;DHT22;5650;52.700;7.306;2022-10-16T01:00:26;12.30;99.90
11188;DHT22;5650;52.700;7.306;2022-10-16T01:02:54;12.30;99.90
11188;DHT22;5650;52.700;7.306;2022-10-16T01:05:24;12.30;99.90
11188;DHT22;5650;52.700;7.306;2022-10-16T01:08:07;12.30;99.90
11188;DHT22;5650;52.700;7.306;2022-10-16T01:10:39;12.40;99.90
11188;DHT22;5650;52.700;7.306;2022-10-16T01:13:20;12.40;99.90
11188;DHT22;5650;52.700;7.306;2022-10-16T01:15:52;12.40;99.90
11188;DHT22;5650;52.700;7.306;2022-10-16T01:18:37;12.50;99.90
11188;DHT22;5650;52.700;7.306;2022-10-16T01:21:06;12.50;99.90
11188;DHT22;5650;52.700;7.306;2022-10-16T01:23:47;12.50;99.90
11188;DHT22;5650;52.700;7.306;2022-10-16T01:26:24;12.60;99.90
11188;DHT22;5650;52.700;7.306;2022-10-16T01:28:57;12.60;99.90
11188;DHT22;5650;52.700;7.306;2022-10-16T01:31:31;12.60;99.90
11188;DHT22;5650;52.700;7.306;2022-10-16T01:34:02;12.60;99.90
11188;DHT22;5650;52.700;7.306;2022-10-16T01:36:35;12.70;99.90
11188;DHT22;5650;52.700;7.306;2022-10-16T01:39:11;12.70;99.90
11188;DHT22;5650;52.700;7.306;2022-10-16T01:41:44;12.70;99.90
11188;DHT22;5650;52.700;7.306;2022-10-16T01:44:20;12.70;99.90
11188;DHT22;5650;52.700;7.306;2022-10-16T01:46:57;12.70;99.90
11188;DHT22;5650;52.700;7.306;2022-10-16T01:49:26;12.70;99.90
11188;DHT22;5650;52.700;7.306;2022-10-16T01:51:59;12.70;99.90
11188;DHT22;5650;52.700;7.306;2022-10-16T01:54:27;12.70;99.90
11188;DHT22;5650;52.700;7.306;2022-10-16T01:56:56;12.70;99.90
11188;DHT22;5650;52.700;7.306;2022-10-16T01:59:43;12.70;99.90
11188;DHT22;5650;52.700;7.306;2022-10-16T02:02:18;12.70;99.90
11188;DHT22;5650;52.700;7.306;2022-10-16T02:04:49;12.70;99.90
11188;DHT22;5650;52.700;7.306;2022-10-16T02:07:17;12.70;99.90
11188;DHT22;5650;52.700;7.306;2022-10-16T02:09:45;12.70;99.90
11188;DHT22;5650;52.700;7.306;2022-10-16T02:12:18;12.70;99.90
11188;DHT22;5650;52.700;7.306;2022-10-16T02:14:51;12.70;99.90
11188;DHT22;5650;52.700;7.306;2022-10-16T02:17:19;12.70;99.90
11188;DHT22;5650;52.700;7.306;2022-10-16T02:19:48;12.60;99.90
11188;DHT22;5650;52.700;7.306;2022-10-16T02:22:20;12.60;99.90
11188;DHT22;5650;52.700;7.306;2022-10-16T02:24:53;12.50;99.90
11188;DHT22;5650;52.700;7.306;2022-10-16T02:27:27;12.50;99.90
11188;DHT22;5650;52.700;7.306;2022-10-16T02:30:15;12.50;99.90
11188;DHT22;5650;52.700;7.306;2022-10-16T02:32:46;12.40;99.90
11188;DHT22;5650;52.700;7.306;2022-10-16T02:35:19;12.30;99.90
11188;DHT22;5650;52.700;7.306;2022-10-16T02:37:47;12.30;99.90
11188;DHT22;5650;52.700;7.306;2022-10-16T02:40:18;12.30;99.90
11188;DHT22;5650;52.700;7.306;2022-10-16T02:42:53;12.30;99.90
11188;DHT22;5650;52.700;7.306;2022-10-16T02:45:23;12.30;99.90
11188;DHT22;5650;52.700;7.306;2022-10-16T02:47:50;12.20;99.90
11188;DHT22;5650;52.700;7.306;2022-10-16T02:50:21;12.20;99.90
11188;DHT22;5650;52.700;7.306;2022-10-16T02:52:55;12.30;99.90
11188;DHT22;5650;52.700;7.306;2022-10-16T02:55:31;12.30;99.90
11188;DHT22;5650;52.700;7.306;2022-10-16T02:58:02;12.30;99.90
11188;DHT22;5650;52.700;7.306;2022-10-16T03:00:43;12.30;99.90
11188;DHT22;5650;52.700;7.306;2022-10-16T03:03:13;12.40;99.90
11188;DHT22;5650;52.700;7.306;2022-10-16T03:05:43;12.40;99.90
11188;DHT22;5650;52.700;7.306;2022-10-16T03:08:11;12.40;99.90
11188;DHT22;5650;52.700;7.306;2022-10-16T03:10:38;12.50;99.90
11188;DHT22;5650;52.700;7.306;2022-10-16T03:13:10;12.50;99.90
11188;DHT22;5650;52.700;7.306;2022-10-16T03:15:44;12.50;99.90
11188;DHT22;5650;52.700;7.306;2022-10-16T03:18:12;12.50;99.90
11188;DHT22;5650;52.700;7.306;2022-10-16T03:20:39;12.50;99.90
11188;DHT22;5650;52.700;7.306;2022-10-16T03:23:06;12.50;99.90
11188;DHT22;5650;52.700;7.306;2022-10-16T03:25:36;12.60;99.90
11188;DHT22;5650;52.700;7.306;2022-10-16T03:28:13;12.60;99.90
11188;DHT22;5650;52.700;7.306;2022-10-16T03:30:40;12.60;99.90
11188;DHT22;5650;52.700;7.306;2022-10-16T03:33:14;12.70;99.90
11188;DHT22;5650;52.700;7.306;2022-10-16T03:35:41;12.70;99.90
11188;DHT22;5650;52.700;7.306;2022-10-16T03:38:12;12.70;99.90
11188;DHT22;5650;52.700;7.306;2022-10-16T03:40:41;12.70;99.90
11188;DHT22;5650;52.700;7.306;2022-10-16T03:43:11;12.70;99.90
11188;DHT22;5650;52.700;7.306;2022-10-16T03:45:39;12.70;99.90
11188;DHT22;5650;52.700;7.306;2022-10-16T03:48:06;12.80;99.90
11188;DHT22;5650;52.700;7.306;2022-10-16T03:50:37;12.80;99.90
11188;DHT22;5650;52.700;7.306;2022-10-16T03:53:07;12.80;99.90
11188;DHT22;5650;52.700;7.306;2022-10-16T03:55:43;12.80;99.90
11188;DHT22;5650;52.700;7.306;2022-10-16T03:58:11;12.80;99.90
11188;DHT22;5650;52.700;7.306;2022-10-16T04:00:42;12.80;99.90
11188;DHT22;5650;52.700;7.306;2022-10-16T04:03:12;12.80;99.90
11188;DHT22;5650;52.700;7.306;2022-10-16T04:05:43;12.80;99.90
11188;DHT22;5650;52.700;7.306;2022-10-16T04:08:14;12.90;99.90
11188;DHT22;5650;52.700;7.306;2022-10-16T04:10:44;12.80;99.90
11188;DHT22;5650;52.700;7.306;2022-10-16T04:13:11;12.80;99.90
11188;DHT22;5650;52.700;7.306;2022-10-16T04:15:38;12.80;99.90
11188;DHT22;5650;52.700;7.306;2022-10-16T04:18:16;12.80;99.90
11188;DHT22;5650;52.700;7.306;2022-10-16T04:20:47;12.80;99.90
11188;DHT22;5650;52.700;7.306;2022-10-16T04:23:22;12.80;99.90
11188;DHT22;5650;52.700;7.306;2022-10-16T04:25:49;12.80;99.90
11188;DHT22;5650;52.700;7.306;2022-10-16T04:28:17;12.80;99.90
11188;DHT22;5650;52.700;7.306;2022-10-16T04:30:44;12.80;99.90
11188;DHT22;5650;52.700;7.306;2022-10-16T04:33:11;12.80;99.90
11188;DHT22;5650;52.700;7.306;2022-10-16T04:35:41;12.80;99.90
11188;DHT22;5650;52.700;7.306;2022-10-16T04:38:10;12.80;99.90
11188;DHT22;5650;52.700;7.306;2022-10-16T04:40:41;12.80;99.90
11188;DHT22;5650;52.700;7.306;2022-10-16T04:43:11;12.80;99.90
11188;DHT22;5650;52.700;7.306;2022-10-16T04:45:47;12.80;99.90
11188;DHT22;5650;52.700;7.306;2022-10-16T04:48:16;12.80;99.90
11188;DHT22;5650;52.700;7.306;2022-10-16T04:50:43;12.80;99.90
11188;DHT22;5650;52.700;7.306;2022-10-16T04:53:12;12.80;99.90
11188;DHT22;5650;52.700;7.306;2022-10-16T04:55:42;12.80;99.90
11188;DHT22;5650;52.700;7.306;2022-10-16T04:58:13;12.80;99.90
11188;DHT22;5650;52.700;7.306;2022-10-16T05:00:40;12.80;99.90
11188;DHT22;5650;52.700;7.306;2022-10-16T05:03:09;12.80;99.90
11188;DHT22;5650;52.700;7.306;2022-10-16T05:05:43;12.70;99.90
11188;DHT22;5650;52.700;7.306;2022-10-16T05:08:12;12.70;99.90
11188;DHT22;5650;52.700;7.306;2022-10-16T05:10:44;12.70;99.90
11188;DHT22;5650;52.700;7.306;2022-10-16T05:13:11;12.70;99.90
11188;DHT22;5650;52.700;7.306;2022-10-16T05:15:42;12.70;99.90
11188;DHT22;5650;52.700;7.306;2022-10-16T05:18:11;12.70;99.90
11188;DHT22;5650;52.700;7.306;2022-10-16T05:20:41;12.70;99.90
11188;DHT22;5650;52.700;7.306;2022-10-16T05:23:16;12.70;99.90
11188;DHT22;5650;52.700;7.306;2022-10-16T05:25:55;12.70;99.90
11188;DHT22;5650;52.700;7.306;2022-10-16T05:28:38;12.70;99.90
11188;DHT22;5650;52.700;7.306;2022-10-16T05:31:06;12.70;99.90
11188;DHT22;5650;52.700;7.306;2022-10-16T05:33:33;12.70;99.90
11188;DHT22;5650;52.700;7.306;2022-10-16T05:36:04;12.70;99.90
11188;DHT22;5650;52.700;7.306;2022-10-16T05:38:37;12.70;99.90
11188;DHT22;5650;52.700;7.306;2022-10-16T05:41:06;12.60;99.90
11188;DHT22;5650;52.700;7.306;2022-10-16T05:43:33;12.60;99.90
11188;DHT22;5650;52.700;7.306;2022-10-16T05:46:06;12.60;99.90
11188;DHT22;5650;52.700;7.306;2022-10-16T05:48:36;12.60;99.90
11188;DHT22;5650;52.700;7.306;2022-10-16T05:51:06;12.60;99.90
11188;DHT22;5650;52.700;7.306;2022-10-16T05:53:46;12.60;99.90
11188;DHT22;5650;52.700;7.306;2022-10-16T05:56:14;12.60;99.90
11188;DHT22;5650;52.700;7.306;2022-10-16T05:58:41;12.60;99.90
11188;DHT22;5650;52.700;7.306;2022-10-16T06:01:11;12.60;99.90
11188;DHT22;5650;52.700;7.306;2022-10-16T06:03:44;12.60;99.90
11188;DHT22;5650;52.700;7.306;2022-10-16T06:06:13;12.60;99.90
11188;DHT22;5650;52.700;7.306;2022-10-16T06:08:40;12.60;99.90
11188;DHT22;5650;52.700;7.306;2022-10-16T06:13:39;12.70;99.90
11188;DHT22;5650;52.700;7.306;2022-10-16T06:16:09;12.70;99.90
11188;DHT22;5650;52.700;7.306;2022-10-16T06:18:42;12.70;99.90
11188;DHT22;5650;52.700;7.306;2022-10-16T06:21:11;12.70;99.90
11188;DHT22;5650;52.700;7.306;2022-10-16T06:23:42;12.70;99.90
11188;DHT22;5650;52.700;7.306;2022-10-16T06:26:16;12.70;99.90
11188;DHT22;5650;52.700;7.306;2022-10-16T06:28:51;12.70;99.90
11188;DHT22;5650;52.700;7.306;2022-10-16T06:31:18;12.70;99.90
11188;DHT22;5650;52.700;7.306;2022-10-16T06:33:51;12.70;99.90
11188;DHT22;5650;52.700;7.306;2022-10-16T06:36:18;12.70;99.90
11188;DHT22;5650;52.700;7.306;2022-10-16T06:38:46;12.70;99.90
11188;DHT22;5650;52.700;7.306;2022-10-16T06:41:15;12.70;99.90
11188;DHT22;5650;52.700;7.306;2022-10-16T06:43:43;12.80;99.90
11188;DHT22;5650;52.700;7.306;2022-10-16T06:46:17;12.80;99.90
11188;DHT22;5650;52.700;7.306;2022-10-16T06:48:44;12.80;99.90
11188;DHT22;5650;52.700;7.306;2022-10-16T06:51:13;12.80;99.90
11188;DHT22;5650;52.700;7.306;2022-10-16T06:53:42;12.80;99.90
11188;DHT22;5650;52.700;7.306;2022-10-16T06:56:12;12.90;99.90
11188;DHT22;5650;52.700;7.306;2022-10-16T06:58:39;13.00;99.90
11188;DHT22;5650;52.700;7.306;2022-10-16T07:01:10;13.00;99.90
11188;DHT22;5650;52.700;7.306;2022-10-16T07:03:43;13.10;99.90
11188;DHT22;5650;52.700;7.306;2022-10-16T07:06:13;13.10;99.90
11188;DHT22;5650;52.700;7.306;2022-10-16T07:08:44;13.10;99.90
11188;DHT22;5650;52.700;7.306;2022-10-16T07:11:13;13.10;99.90
11188;DHT22;5650;52.700;7.306;2022-10-16T07:13:42;13.10;99.90
11188;DHT22;5650;52.700;7.306;2022-10-16T07:16:10;13.10;99.90
11188;DHT22;5650;52.700;7.306;2022-10-16T07:18:43;13.10;99.90
11188;DHT22;5650;52.700;7.306;2022-10-16T07:21:13;13.10;99.90
11188;DHT22;5650;52.700;7.306;2022-10-16T07:23:43;13.20;99.90
11188;DHT22;5650;52.700;7.306;2022-10-16T07:26:16;13.20;99.90
11188;DHT22;5650;52.700;7.306;2022-10-16T07:28:44;13.20;99.90
11188;DHT22;5650;52.700;7.306;2022-10-16T07:31:13;13.20;99.90
11188;DHT22;5650;52.700;7.306;2022-10-16T07:33:43;13.20;99.90
11188;DHT22;5650;52.700;7.306;2022-10-16T07:36:13;13.20;99.90
11188;DHT22;5650;52.700;7.306;2022-10-16T07:38:41;13.20;99.90
11188;DHT22;5650;52.700;7.306;2022-10-16T07:41:12;13.30;99.90
11188;DHT22;5650;52.700;7.306;2022-10-16T07:43:48;13.30;99.90
11188;DHT22;5650;52.700;7.306;2022-10-16T07:46:27;13.30;99.90
11188;DHT22;5650;52.700;7.306;2022-10-16T07:48:58;13.50;99.90
11188;DHT22;5650;52.700;7.306;2022-10-16T07:51:26;13.90;99.90
11188;DHT22;5650;52.700;7.306;2022-10-16T07:53:53;14.40;99.90
11188;DHT22;5650;52.700;7.306;2022-10-16T07:56:21;15.00;99.90
11188;DHT22;5650;52.700;7.306;2022-10-16T07:58:54;15.50;99.90
11188;DHT22;5650;52.700;7.306;2022-10-16T08:01:24;15.50;99.90
11188;DHT22;5650;52.700;7.306;2022-10-16T08:04:02;15.40;99.90
11188;DHT22;5650;52.700;7.306;2022-10-16T08:06:29;15.20;99.90
11188;DHT22;5650;52.700;7.306;2022-10-16T08:09:01;15.00;99.90
11188;DHT22;5650;52.700;7.306;2022-10-16T08:11:37;14.90;99.90
11188;DHT22;5650;52.700;7.306;2022-10-16T08:14:07;14.80;99.90
11188;DHT22;5650;52.700;7.306;2022-10-16T08:16:40;14.80;99.90
11188;DHT22;5650;52.700;7.306;2022-10-16T08:19:14;14.80;99.90
11188;DHT22;5650;52.700;7.306;2022-10-16T08:21:42;14.80;99.90
11188;DHT22;5650;52.700;7.306;2022-10-16T08:24:12;14.80;99.90
11188;DHT22;5650;52.700;7.306;2022-10-16T08:26:39;14.80;99.90
11188;DHT22;5650;52.700;7.306;2022-10-16T08:29:06;14.80;99.90
11188;DHT22;5650;52.700;7.306;2022-10-16T08:31:33;14.90;99.90
11188;DHT22;5650;52.700;7.306;2022-10-16T08:34:06;14.90;99.90
11188;DHT22;5650;52.700;7.306;2022-10-16T08:36:35;14.90;99.90
11188;DHT22;5650;52.700;7.306;2022-10-16T08:39:03;14.90;99.90
11188;DHT22;5650;52.700;7.306;2022-10-16T08:42:07;14.90;99.90
11188;DHT22;5650;52.700;7.306;2022-10-16T08:45:13;14.90;99.90
11188;DHT22;5650;52.700;7.306;2022-10-16T08:48:04;15.00;99.90
11188;DHT22;5650;52.700;7.306;2022-10-16T08:50:35;15.10;99.90
11188;DHT22;5650;52.700;7.306;2022-10-16T08:53:15;15.20;99.90
11188;DHT22;5650;52.700;7.306;2022-10-16T08:55:50;15.30;99.90
11188;DHT22;5650;52.700;7.306;2022-10-16T08:58:19;15.40;99.90
11188;DHT22;5650;52.700;7.306;2022-10-16T09:00:55;15.40;99.90
11188;DHT22;5650;52.700;7.306;2022-10-16T09:06:45;15.40;99.90
11188;DHT22;5650;52.700;7.306;2022-10-16T09:12:15;15.40;99.90
11188;DHT22;5650;52.700;7.306;2022-10-16T09:14:54;15.50;99.90
11188;DHT22;5650;52.700;7.306;2022-10-16T09:17:32;15.60;99.90
11188;DHT22;5650;52.700;7.306;2022-10-16T09:20:29;15.80;99.90
11188;DHT22;5650;52.700;7.306;2022-10-16T09:23:12;15.90;99.90
11188;DHT22;5650;52.700;7.306;2022-10-16T09:25:44;16.00;99.90
11188;DHT22;5650;52.700;7.306;2022-10-16T09:28:13;16.10;99.90
11188;DHT22;5650;52.700;7.306;2022-10-16T09:30:43;16.10;99.90
11188;DHT22;5650;52.700;7.306;2022-10-16T09:33:14;16.20;99.90
11188;DHT22;5650;52.700;7.306;2022-10-16T09:35:51;16.20;99.90
11188;DHT22;5650;52.700;7.306;2022-10-16T09:38:25;16.20;99.90
11188;DHT22;5650;52.700;7.306;2022-10-16T09:40:58;16.20;99.90
11188;DHT22;5650;52.700;7.306;2022-10-16T09:43:31;16.20;99.90
11188;DHT22;5650;52.700;7.306;2022-10-16T09:46:01;16.30;99.90
11188;DHT22;5650;52.700;7.306;2022-10-16T09:48:36;16.30;99.90
11188;DHT22;5650;52.700;7.306;2022-10-16T09:51:18;16.30;99.90
11188;DHT22;5650;52.700;7.306;2022-10-16T09:53:46;16.30;99.90
11188;DHT22;5650;52.700;7.306;2022-10-16T09:56:23;16.30;99.90
11188;DHT22;5650;52.700;7.306;2022-10-16T09:58:54;16.30;99.90
11188;DHT22;5650;52.700;7.306;2022-10-16T10:01:24;16.30;99.90
11188;DHT22;5650;52.700;7.306;2022-10-16T10:03:56;16.40;99.90
11188;DHT22;5650;52.700;7.306;2022-10-16T10:06:31;16.40;99.90
11188;DHT22;5650;52.700;7.306;2022-10-16T10:09:05;16.40;99.90
11188;DHT22;5650;52.700;7.306;2022-10-16T10:11:47;16.40;99.90
11188;DHT22;5650;52.700;7.306;2022-10-16T10:14:24;16.50;99.90
11188;DHT22;5650;52.700;7.306;2022-10-16T10:17:14;16.50;99.90
11188;DHT22;5650;52.700;7.306;2022-10-16T10:19:48;16.60;99.90
11188;DHT22;5650;52.700;7.306;2022-10-16T10:22:28;16.60;99.90
11188;DHT22;5650;52.700;7.306;2022-10-16T10:28:11;16.70;99.90
11188;DHT22;5650;52.700;7.306;2022-10-16T10:30:51;16.70;99.90
11188;DHT22;5650;52.700;7.306;2022-10-16T10:33:31;16.80;99.90
11188;DHT22;5650;52.700;7.306;2022-10-16T10:36:12;16.80;99.90
11188;DHT22;5650;52.700;7.306;2022-10-16T10:38:47;16.90;99.90
11188;DHT22;5650;52.700;7.306;2022-10-16T10:44:26;16.90;99.90
11188;DHT22;5650;52.700;7.306;2022-10-16T10:47:05;17.00;99.90
11188;DHT22;5650;52.700;7.306;2022-10-16T10:49:51;16.90;99.90
11188;DHT22;5650;52.700;7.306;2022-10-16T10:52:38;16.90;99.90
11188;DHT22;5650;52.700;7.306;2022-10-16T10:55:23;17.00;99.90
11188;DHT22;5650;52.700;7.306;2022-10-16T10:58:25;17.00;99.90
11188;DHT22;5650;52.700;7.306;2022-10-16T11:01:03;17.00;99.90
11188;DHT22;5650;52.700;7.306;2022-10-16T11:06:25;17.10;99.90
11188;DHT22;5650;52.700;7.306;2022-10-16T11:09:07;17.10;99.90
11188;DHT22;5650;52.700;7.306;2022-10-16T11:11:42;17.10;99.90
11188;DHT22;5650;52.700;7.306;2022-10-16T11:14:15;17.20;99.90
11188;DHT22;5650;52.700;7.306;2022-10-16T11:16:49;17.20;99.90
11188;DHT22;5650;52.700;7.306;2022-10-16T11:19:28;17.20;99.90
11188;DHT22;5650;52.700;7.306;2022-10-16T11:22:15;17.30;99.90
11188;DHT22;5650;52.700;7.306;2022-10-16T11:24:49;17.30;99.90
11188;DHT22;5650;52.700;7.306;2022-10-16T11:27:22;17.40;99.90
11188;DHT22;5650;52.700;7.306;2022-10-16T11:30:04;17.50;99.90
11188;DHT22;5650;52.700;7.306;2022-10-16T11:32:51;17.60;99.90
11188;DHT22;5650;52.700;7.306;2022-10-16T11:35:33;17.70;99.90
11188;DHT22;5650;52.700;7.306;2022-10-16T11:38:10;17.90;99.90
11188;DHT22;5650;52.700;7.306;2022-10-16T11:40:41;18.00;99.90
11188;DHT22;5650;52.700;7.306;2022-10-16T11:43:24;18.00;99.90
11188;DHT22;5650;52.700;7.306;2022-10-16T11:46:07;18.00;99.90
11188;DHT22;5650;52.700;7.306;2022-10-16T11:48:50;18.00;99.90
11188;DHT22;5650;52.700;7.306;2022-10-16T11:51:32;18.00;99.90
11188;DHT22;5650;52.700;7.306;2022-10-16T11:54:13;18.10;99.90
11188;DHT22;5650;52.700;7.306;2022-10-16T11:56:41;18.00;99.90
11188;DHT22;5650;52.700;7.306;2022-10-16T11:59:18;18.00;99.90
11188;DHT22;5650;52.700;7.306;2022-10-16T12:01:53;18.00;99.90
11188;DHT22;5650;52.700;7.306;2022-10-16T12:04:28;18.00;99.90
11188;DHT22;5650;52.700;7.306;2022-10-16T12:07:03;18.00;99.90
11188;DHT22;5650;52.700;7.306;2022-10-16T12:09:38;18.00;99.90
11188;DHT22;5650;52.700;7.306;2022-10-16T12:12:24;18.00;99.90
11188;DHT22;5650;52.700;7.306;2022-10-16T12:15:00;18.00;99.90
11188;DHT22;5650;52.700;7.306;2022-10-16T12:17:47;18.10;99.90
11188;DHT22;5650;52.700;7.306;2022-10-16T12:20:32;18.10;99.90
11188;DHT22;5650;52.700;7.306;2022-10-16T12:23:16;18.20;99.90
11188;DHT22;5650;52.700;7.306;2022-10-16T12:25:54;18.20;99.90
11188;DHT22;5650;52.700;7.306;2022-10-16T12:28:26;18.30;99.90
11188;DHT22;5650;52.700;7.306;2022-10-16T12:31:16;18.30;99.90
11188;DHT22;5650;52.700;7.306;2022-10-16T12:33:58;18.40;99.90
11188;DHT22;5650;52.700;7.306;2022-10-16T12:36:37;18.50;99.90
11188;DHT22;5650;52.700;7.306;2022-10-16T12:39:16;18.50;99.90
11188;DHT22;5650;52.700;7.306;2022-10-16T12:41:46;18.50;99.90
11188;DHT22;5650;52.700;7.306;2022-10-16T12:44:23;18.50;99.90
11188;DHT22;5650;52.700;7.306;2022-10-16T12:46:54;18.50;99.90
11188;DHT22;5650;52.700;7.306;2022-10-16T12:49:35;18.50;99.90
11188;DHT22;5650;52.700;7.306;2022-10-16T12:52:27;18.40;99.90
11188;DHT22;5650;52.700;7.306;2022-10-16T12:55:33;18.20;99.90
11188;DHT22;5650;52.700;7.306;2022-10-16T13:01:25;18.10;99.90
11188;DHT22;5650;52.700;7.306;2022-10-16T13:07:26;18.10;99.90
11188;DHT22;5650;52.700;7.306;2022-10-16T13:10:09;18.20;99.90
11188;DHT22;5650;52.700;7.306;2022-10-16T13:16:16;18.30;99.90
11188;DHT22;5650;52.700;7.306;2022-10-16T13:18:54;18.40;99.90
11188;DHT22;5650;52.700;7.306;2022-10-16T13:21:43;18.50;99.90
11188;DHT22;5650;52.700;7.306;2022-10-16T13:24:40;18.50;99.90
11188;DHT22;5650;52.700;7.306;2022-10-16T13:27:18;18.50;99.90
11188;DHT22;5650;52.700;7.306;2022-10-16T13:29:54;18.60;99.90
11188;DHT22;5650;52.700;7.306;2022-10-16T13:32:48;18.50;99.90
11188;DHT22;5650;52.700;7.306;2022-10-16T13:35:23;18.50;99.90
11188;DHT22;5650;52.700;7.306;2022-10-16T13:38:12;18.40;99.90
11188;DHT22;5650;52.700;7.306;2022-10-16T13:40:51;18.30;99.90
11188;DHT22;5650;52.700;7.306;2022-10-16T13:43:23;18.10;99.90
11188;DHT22;5650;52.700;7.306;2022-10-16T13:46:05;18.00;99.90
11188;DHT22;5650;52.700;7.306;2022-10-16T13:48:33;18.10;99.90
11188;DHT22;5650;52.700;7.306;2022-10-16T13:51:06;18.10;99.90
11188;DHT22;5650;52.700;7.306;2022-10-16T13:53:39;18.20;99.90
11188;DHT22;5650;52.700;7.306;2022-10-16T13:56:20;18.30;99.90
11188;DHT22;5650;52.700;7.306;2022-10-16T13:58:59;18.30;99.90
11188;DHT22;5650;52.700;7.306;2022-10-16T14:01:29;18.30;99.90
11188;DHT22;5650;52.700;7.306;2022-10-16T14:04:01;18.30;99.90
11188;DHT22;5650;52.700;7.306;2022-10-16T14:06:33;18.20;99.90
11188;DHT22;5650;52.700;7.306;2022-10-16T14:09:08;18.10;99.90
11188;DHT22;5650;52.700;7.306;2022-10-16T14:11:48;18.10;99.90
11188;DHT22;5650;52.700;7.306;2022-10-16T14:14:18;18.00;99.90
11188;DHT22;5650;52.700;7.306;2022-10-16T14:16:46;18.00;99.90
11188;DHT22;5650;52.700;7.306;2022-10-16T14:19:19;18.10;99.90
11188;DHT22;5650;52.700;7.306;2022-10-16T14:21:47;18.10;99.90
11188;DHT22;5650;52.700;7.306;2022-10-16T14:24:32;18.00;99.90
11188;DHT22;5650;52.700;7.306;2022-10-16T14:27:00;18.00;99.90
11188;DHT22;5650;52.700;7.306;2022-10-16T14:29:32;18.00;99.90
11188;DHT22;5650;52.700;7.306;2022-10-16T14:32:22;18.00;99.90
11188;DHT22;5650;52.700;7.306;2022-10-16T14:35:00;18.00;99.90
11188;DHT22;5650;52.700;7.306;2022-10-16T14:37:31;17.90;99.90
11188;DHT22;5650;52.700;7.306;2022-10-16T14:39:58;18.00;99.90
11188;DHT22;5650;52.700;7.306;2022-10-16T14:42:38;18.00;99.90
11188;DHT22;5650;52.700;7.306;2022-10-16T14:45:11;17.90;99.90
11188;DHT22;5650;52.700;7.306;2022-10-16T14:47:51;17.90;99.90
11188;DHT22;5650;52.700;7.306;2022-10-16T14:50:19;17.80;99.90
11188;DHT22;5650;52.700;7.306;2022-10-16T14:52:49;17.80;99.90
11188;DHT22;5650;52.700;7.306;2022-10-16T14:55:32;17.70;99.90
11188;DHT22;5650;52.700;7.306;2022-10-16T14:58:01;17.70;99.90
11188;DHT22;5650;52.700;7.306;2022-10-16T15:00:33;17.60;99.90
11188;DHT22;5650;52.700;7.306;2022-10-16T15:03:00;17.50;99.90
11188;DHT22;5650;52.700;7.306;2022-10-16T15:05:33;17.50;99.90
11188;DHT22;5650;52.700;7.306;2022-10-16T15:08:00;17.40;99.90
11188;DHT22;5650;52.700;7.306;2022-10-16T15:10:35;17.40;99.90
11188;DHT22;5650;52.700;7.306;2022-10-16T15:13:04;17.30;99.90
11188;DHT22;5650;52.700;7.306;2022-10-16T15:15:35;17.30;99.90
11188;DHT22;5650;52.700;7.306;2022-10-16T15:18:04;17.30;99.90
11188;DHT22;5650;52.700;7.306;2022-10-16T15:20:35;17.30;99.90
11188;DHT22;5650;52.700;7.306;2022-10-16T15:23:05;17.20;99.90
11188;DHT22;5650;52.700;7.306;2022-10-16T15:25:36;17.20;99.90
11188;DHT22;5650;52.700;7.306;2022-10-16T15:28:05;17.10;99.90
11188;DHT22;5650;52.700;7.306;2022-10-16T15:30:40;17.10;99.90
11188;DHT22;5650;52.700;7.306;2022-10-16T15:33:15;17.10;99.90
11188;DHT22;5650;52.700;7.306;2022-10-16T15:35:46;17.00;99.90
11188;DHT22;5650;52.700;7.306;2022-10-16T15:38:14;17.00;99.90
11188;DHT22;5650;52.700;7.306;2022-10-16T15:40:41;16.90;99.90
11188;DHT22;5650;52.700;7.306;2022-10-16T15:43:08;16.90;99.90
11188;DHT22;5650;52.700;7.306;2022-10-16T15:45:37;16.80;99.90
11188;DHT22;5650;52.700;7.306;2022-10-16T15:48:04;16.80;99.90
11188;DHT22;5650;52.700;7.306;2022-10-16T15:50:37;16.70;99.90
11188;DHT22;5650;52.700;7.306;2022-10-16T15:53:08;16.70;99.90
11188;DHT22;5650;52.700;7.306;2022-10-16T15:55:38;16.60;99.90
11188;DHT22;5650;52.700;7.306;2022-10-16T15:58:08;16.60;99.90
11188;DHT22;5650;52.700;7.306;2022-10-16T16:00:37;16.50;99.90
11188;DHT22;5650;52.700;7.306;2022-10-16T16:03:04;16.50;99.90
11188;DHT22;5650;52.700;7.306;2022-10-16T16:05:44;16.40;99.90
11188;DHT22;5650;52.700;7.306;2022-10-16T16:08:14;16.40;99.90
11188;DHT22;5650;52.700;7.306;2022-10-16T16:10:42;16.30;99.90
11188;DHT22;5650;52.700;7.306;2022-10-16T16:13:09;16.20;99.90
11188;DHT22;5650;52.700;7.306;2022-10-16T16:15:47;16.10;99.90
11188;DHT22;5650;52.700;7.306;2022-10-16T16:18:14;16.00;99.90
11188;DHT22;5650;52.700;7.306;2022-10-16T16:20:41;15.90;99.90
11188;DHT22;5650;52.700;7.306;2022-10-16T16:23:08;15.80;99.90
11188;DHT22;5650;52.700;7.306;2022-10-16T16:25:38;15.80;99.90
11188;DHT22;5650;52.700;7.306;2022-10-16T16:28:08;15.70;99.90
11188;DHT22;5650;52.700;7.306;2022-10-16T16:30:39;15.60;99.90
11188;DHT22;5650;52.700;7.306;2022-10-16T16:33:13;15.50;99.90
11188;DHT22;5650;52.700;7.306;2022-10-16T16:35:43;15.40;99.90
11188;DHT22;5650;52.700;7.306;2022-10-16T16:38:10;15.30;99.90
11188;DHT22;5650;52.700;7.306;2022-10-16T16:40:43;15.20;99.90
11188;DHT22;5650;52.700;7.306;2022-10-16T16:43:13;15.10;99.90
11188;DHT22;5650;52.700;7.306;2022-10-16T16:45:43;15.00;99.90
11188;DHT22;5650;52.700;7.306;2022-10-16T16:48:14;14.90;99.90
11188;DHT22;5650;52.700;7.306;2022-10-16T16:50:41;14.80;99.90